Latest Weather Observations for Moranbah Airport

IDQ60801

Issued at 8:31 pm EST Thursday 3 September 2015 (issued every 30 minutes, with the page automatically refreshed every 10 minutes)

About weather observations | Map of weather stations | Latest weather observations for QLD | Other Formats
Station Details ID: 034035 Name: MORANBAH AIRPORT Lat: -22.06 Lon: 148.08 Height: 232.2 m
Data from the previous 72 hours. | See also: Recent months at Moranbah Airport
Date/Time
EST
Temp
°C
App
Temp
°C
Dew
Point
Rel
Hum
%
Delta-T
°C
Wind Press
QNH
hPa
Press
MSL
hPa
Rain
since 9 am
mm
Dir
 
Spd
km/h
Gust
km/h
Spd
kts
Gust
kts
03/08:30pm 17.0 12.6 -6.1 20 8.8 WSW 9 11 5 6 1018.3 1017.4 0.0
03/08:00pm 18.3 13.1 -6.4 18 9.5 SW 13 15 7 8 1018.0 1017.1 0.0
03/07:30pm 19.3 14.4 -7.1 16 10.2 WSW 11 11 6 6 1017.5 1016.6 0.0
03/07:00pm 20.4 15.8 -8.0 14 10.8 WSW 9 11 5 6 1017.2 1016.3 0.0
03/06:30pm 22.4 17.0 -8.4 12 11.9 W 13 17 7 9 1016.8 1015.9 0.0
03/06:00pm 24.5 18.7 -9.1 10 13.1 W 15 20 8 11 1016.3 1015.5 0.0
03/05:30pm 26.8 20.0 -8.7 9 14.3 WSW 20 30 11 16 1015.9 1015.1 0.0
03/05:00pm 27.8 20.6 -9.4 8 14.9 WSW 22 33 12 18 1015.7 1014.9 0.0
03/04:30pm 28.3 20.8 -9.1 8 15.2 WSW 24 41 13 22 1015.7 1014.9 0.0
03/04:00pm 29.0 21.0 -10.2 7 15.7 WSW 26 37 14 20 1015.4 1014.6 0.0
03/03:30pm 29.4 20.9 -11.9 6 16.1 WSW 28 41 15 22 1015.2 1014.3 0.0
03/03:00pm 29.6 21.2 -9.8 7 16.0 W 28 39 15 21 1015.0 1014.1 0.0
03/02:30pm 29.9 22.3 -9.6 7 16.1 W 24 35 13 19 1015.2 1014.3 0.0
03/02:00pm 29.5 21.6 -8.2 8 15.7 W 26 43 14 23 1015.5 1014.7 0.0
03/01:30pm 29.2 20.8 -5.5 10 15.1 W 30 41 16 22 1015.7 1014.9 0.0
03/01:00pm 29.7 21.8 -5.1 10 15.3 WNW 28 41 15 22 1015.9 1015.1 0.0
03/12:30pm 30.0 23.1 -2.5 12 15.0 WNW 24 35 13 19 1016.3 1015.5 0.0
03/12:00pm 28.4 21.9 0.2 16 13.5 WNW 24 37 13 20 1017.0 1016.1 0.0
03/11:30am 27.3 20.4 0.1 17 12.9 WNW 26 37 14 20 1017.7 1016.8 0.0
03/11:00am 27.2 21.1 3.0 21 12.1 WNW 24 37 13 20 1018.3 1017.4 0.0
03/10:30am 26.5 22.2 8.0 31 10.0 W 20 28 11 15 1018.7 1017.8 0.0
03/10:00am 26.1 21.6 8.6 33 9.6 W 22 33 12 18 1019.1 1018.3 0.0
03/09:30am 25.3 22.4 12.9 46 7.3 W 20 30 11 16 1018.9 1018.0 0.0
03/09:00am 24.3 20.8 14.4 54 5.9 WNW 26 33 14 18 1018.8 1017.9 0.0
03/08:30am 23.9 21.3 16.9 65 4.4 NW 26 39 14 21 1018.8 1017.9 0.0
03/08:00am 22.9 21.7 17.6 72 3.3 NW 20 28 11 15 1018.5 1017.6 0.0
03/07:30am 21.6 20.6 17.6 78 2.5 NW 19 32 10 17 1018.2 1017.3 0.0
03/07:00am 20.5 21.0 17.5 83 1.9 NW 11 17 6 9 1018.0 1017.1 0.0
03/06:30am 19.6 20.3 17.0 85 1.6 NW 9 13 5 7 1017.6 1016.7 0.0
03/06:00am 20.0 20.2 16.8 82 2.0 WNW 11 15 6 8 1017.0 1016.1 0.0
03/05:30am 20.3 20.3 17.1 82 2.0 NW 13 20 7 11 1016.3 1015.5 0.0
03/05:00am 20.3 21.0 17.1 82 2.0 NW 9 19 5 10 1015.8 1015.0 0.0
03/04:30am 20.7 20.3 17.1 80 2.2 NW 15 20 8 11 1015.4 1014.6 0.0
03/04:00am 21.0 21.4 17.2 79 2.3 NW 11 19 6 10 1015.2 1014.3 0.0
03/03:30am 21.6 20.8 17.2 76 2.7 NNW 17 24 9 13 1015.0 1014.1 0.0
03/03:00am 21.9 19.6 17.5 76 2.7 NW 26 35 14 19 1015.1 1014.2 0.0
03/02:30am 21.7 20.7 17.5 77 2.6 NW 19 26 10 14 1015.2 1014.3 0.0
03/02:00am 21.4 20.8 17.6 79 2.4 NW 17 24 9 13 1015.2 1014.3 0.0
03/01:30am 20.4 21.0 16.8 80 2.2 NW 9 13 5 7 1014.8 1013.9 0.0
03/01:00am 21.1 20.4 17.3 79 2.4 NNW 17 24 9 13 1014.7 1013.8 0.0
03/12:30am 21.5 19.4 17.1 76 2.7 N 24 33 13 18 1014.6 1013.7 0.0
03/12:00am 21.9 20.5 17.1 74 3.0 N 20 26 11 14 1014.7 1013.8 0.0
 
Date/Time
EST
Temp
°C
App
Temp
°C
Dew
Point
Rel
Hum
%
Delta-T
°C
Wind Press
QNH
hPa
Press
MSL
hPa
Rain
since 9 am
mm
Dir
 
Spd
km/h
Gust
km/h
Spd
kts
Gust
kts
02/11:30pm 22.5 19.6 17.0 71 3.4 N 28 37 15 20 1014.7 1013.8 0.0
02/11:00pm 23.1 20.9 16.9 68 3.8 N 24 35 13 19 1014.6 1013.7 0.0
02/10:30pm 23.6 20.9 16.6 65 4.3 N 26 35 14 19 1014.5 1013.6 0.0
02/10:00pm 24.4 21.7 16.6 61 4.8 N 26 35 14 19 1014.3 1013.4 0.0
02/09:30pm 24.4 22.9 16.4 61 4.9 N 19 24 10 13 1014.5 1013.6 0.0
02/09:00pm 25.1 22.9 16.0 57 5.6 N 22 30 12 16 1014.3 1013.4 0.0
02/08:30pm 26.1 23.1 15.8 53 6.3 N 26 35 14 19 1014.0 1013.1 0.0
02/08:00pm 25.9 24.5 17.0 58 5.6 NNE 20 28 11 15 1014.0 1013.1 0.0
02/07:30pm 25.7 24.7 16.5 56 5.7 NE 17 20 9 11 1013.6 1012.7 0.0
02/07:00pm 26.3 25.4 11.2 38 8.6 N 7 11 4 6 1013.2 1012.3 0.0
02/06:30pm 27.4 26.0 11.0 36 9.4 N 9 11 5 6 1012.9 1012.0 0.0
02/06:00pm 29.3 26.5 11.4 33 10.4 N 17 22 9 12 1012.6 1011.7 0.0
02/05:30pm 30.8 27.6 11.2 30 11.4 NNW 19 24 10 13 1012.5 1011.6 0.0
02/05:00pm 31.2 28.9 11.6 30 11.5 N 15 20 8 11 1012.5 1011.6 0.0
02/04:30pm 32.1 29.4 11.8 29 12.0 NNW 17 28 9 15 1012.5 1011.6 0.0
02/04:00pm 32.4 29.3 12.1 29 12.1 NNW 20 33 11 18 1012.6 1011.7 0.0
02/03:30pm 32.7 31.7 12.3 28 12.2 NNW 9 22 5 12 1012.8 1011.9 0.0
02/03:00pm 31.6 28.0 11.9 30 11.7 N 22 30 12 16 1013.2 1012.3 0.0
02/02:30pm 31.0 28.1 12.8 32 10.9 NNW 20 30 11 16 1013.7 1012.8 0.0
02/02:00pm 31.2 28.5 13.0 33 10.9 NNW 19 30 10 16 1014.1 1013.2 0.0
02/01:30pm 31.3 29.0 14.0 35 10.6 N 19 32 10 17 1014.8 1013.9 0.0
02/01:00pm 30.8 27.5 14.0 36 10.2 NNW 24 35 13 19 1015.5 1014.7 0.0
02/12:30pm 30.3 28.1 14.8 39 9.5 N 20 30 11 16 1016.3 1015.5 0.0
02/12:00pm 29.7 27.4 15.8 43 8.7 NNW 22 32 12 17 1017.0 1016.1 0.0
02/11:30am 29.1 27.5 16.6 46 7.9 NNW 20 30 11 16 1017.7 1016.8 0.0
02/11:00am 28.2 26.7 16.8 50 7.2 N 20 32 11 17 1018.2 1017.3 0.0
02/10:30am 26.4 26.3 16.9 56 6.0 N 13 24 7 13 1018.7 1017.8 0.0
02/10:00am 24.7 24.9 16.7 61 5.0 N 11 20 6 11 1019.1 1018.3 0.0
02/09:30am 23.9 24.7 17.4 67 4.1 N 9 17 5 9 1019.2 1018.4 0.0
02/09:00am 22.0 22.5 16.5 71 3.4 NNE 9 13 5 7 1019.2 1018.4 0.0
02/08:30am 20.9 21.8 16.7 77 2.6 E 7 11 4 6 1019.2 1018.4 0.0
02/08:02am 19.4 20.6 17.4 88 1.2 ESE 7 9 4 5 1018.9 1018.0 0.0
02/08:00am 19.1 20.3 17.4 90 1.0 ESE 7 9 4 5 1018.9 1018.0 0.0
02/07:59am 19.1 20.3 17.4 90 1.0 ESE 7 9 4 5 1018.9 1018.0 0.0
02/07:30am 16.1 18.0 15.8 98 0.2 CALM 0 0 0 0 1018.7 1017.8 0.0
02/07:00am 14.1 14.9 13.6 97 0.3 WNW 2 7 1 4 1018.6 1017.7 0.0
02/06:30am 13.2 13.6 12.4 95 0.4 SSE 2 7 1 4 1018.4 1017.5 0.0
02/06:25am 13.2 12.8 12.3 94 0.5 SSE 6 7 3 4 1018.4 1017.5 0.0
02/06:18am 13.1 12.6 12.2 94 0.5 SSE 6 7 3 4 1018.3 1017.4 0.0
02/06:00am 13.0 12.5 11.9 93 0.6 S 6 7 3 4 1018.1 1017.2 0.0
02/05:30am 13.5 13.4 12.2 92 0.7 SSE 4 7 2 4 1017.7 1016.8 0.0
02/05:00am 14.8 14.4 14.2 96 0.3 SSE 9 11 5 6 1017.2 1016.3 0.0
02/04:30am 15.0 15.1 14.4 96 0.3 SSE 7 9 4 5 1017.0 1016.1 0.0
02/04:00am 14.0 14.8 12.7 92 0.7 CALM 0 0 0 0 1017.0 1016.1 0.0
02/03:30am 14.6 14.6 13.5 93 0.6 SE 6 9 3 5 1017.1 1016.2 0.0
02/03:00am 15.2 14.8 14.2 94 0.6 SE 9 11 5 6 1017.1 1016.2 0.0
02/02:30am 15.1 15.1 13.6 91 0.8 SE 6 7 3 4 1017.1 1016.2 0.0
02/02:00am 15.8 15.2 14.7 93 0.6 SE 11 13 6 7 1016.8 1015.9 0.0
02/01:30am 15.8 14.8 14.5 92 0.7 SE 13 13 7 7 1016.8 1015.9 0.0
02/01:00am 15.9 15.2 14.3 90 0.9 ESE 11 13 6 7 1016.6 1015.8 0.0
02/12:30am 16.5 15.6 14.9 90 0.9 ESE 13 15 7 8 1016.8 1015.9 0.0
02/12:00am 16.7 15.7 14.5 87 1.3 ESE 13 15 7 8 1016.8 1015.9 0.0
 
Date/Time
EST
Temp
°C
App
Temp
°C
Dew
Point
Rel
Hum
%
Delta-T
°C
Wind Press
QNH
hPa
Press
MSL
hPa
Rain
since 9 am
mm
Dir
 
Spd
km/h
Gust
km/h
Spd
kts
Gust
kts
01/11:30pm 17.1 16.2 14.9 87 1.3 ESE 13 15 7 8 1016.9 1016.0 0.0
01/11:00pm 17.0 16.0 14.6 86 1.4 SE 13 15 7 8 1016.9 1016.0 0.0
01/10:30pm 17.1 16.0 14.4 84 1.6 SE 13 13 7 7 1016.8 1015.9 0.0
01/10:00pm 17.5 16.8 14.2 81 1.9 ESE 11 13 6 7 1016.5 1015.7 0.0
01/09:30pm 18.1 17.4 14.2 78 2.3 SE 11 13 6 7 1016.3 1015.5 0.0
01/09:00pm 18.7 17.9 14.0 74 2.7 SE 11 11 6 6 1016.1 1015.3 0.0
01/08:30pm 20.5 20.0 14.8 70 3.4 ENE 11 13 6 7 1015.7 1014.9 0.0
01/08:00pm 21.7 20.6 15.3 67 3.8 ENE 15 24 8 13 1015.1 1014.2 0.0
01/07:30pm 22.7 21.3 15.5 64 4.4 NE 17 30 9 16 1014.6 1013.7 0.0
01/07:00pm 22.3 21.5 9.8 45 6.8 NNW 4 20 2 11 1014.1 1013.2 0.0
01/06:30pm 24.6 23.6 7.3 33 9.2 NW 2 6 1 3 1013.6 1012.7 0.0
01/06:00pm 26.5 24.2 7.5 30 10.2 NNW 9 13 5 7 1013.5 1012.6 0.0
01/05:30pm 28.2 25.5 7.4 27 11.3 NW 11 17 6 9 1013.4 1012.5 0.0
01/05:00pm 28.9 25.1 7.5 26 11.7 NNW 17 24 9 13 1013.2 1012.3 0.0
01/04:30pm 28.7 25.6 7.3 26 11.6 NNW 13 22 7 12 1013.1 1012.2 0.0
01/04:00pm 29.1 26.1 7.6 26 11.8 WNW 13 20 7 11 1013.0 1012.1 0.0
01/03:30pm 28.9 25.7 8.6 28 11.3 N 15 20 8 11 1013.2 1012.3 0.0
01/03:00pm 28.7 25.5 8.4 28 11.2 NW 15 24 8 13 1013.4 1012.5 0.0
01/02:30pm 28.6 25.7 9.8 31 10.6 W 15 26 8 14 1013.9 1013.0 0.0
01/02:00pm 27.4 24.9 9.7 33 9.9 NNW 13 24 7 13 1014.4 1013.5 0.0
01/01:30pm 28.2 26.1 9.9 32 10.3 NNW 11 19 6 10 1015.1 1014.2 0.0
01/01:00pm 27.9 26.2 9.7 32 10.2 WNW 9 19 5 10 1015.7 1014.9 0.0
01/12:30pm 25.8 24.1 11.2 40 8.3 NNW 11 20 6 11 1016.3 1015.5 0.0
01/12:00pm 25.6 24.5 12.1 43 7.8 NNE 9 17 5 9 1017.2 1016.3 0.0
01/11:30am 24.2 22.8 13.4 51 6.4 NNW 13 20 7 11 1017.9 1017.0 0.0
01/11:00am 23.6 23.4 13.5 53 5.9 E 7 13 4 7 1018.4 1017.5 0.0
01/10:30am 23.1 22.9 13.6 55 5.6 ESE 7 17 4 9 1018.8 1017.9 0.0
01/10:00am 21.5 20.8 12.1 55 5.3 E 7 13 4 7 1019.3 1018.5 0.0
01/09:30am 20.7 18.3 10.2 51 5.7 E 13 20 7 11 1019.4 1018.9 0.0
01/09:00am 19.8 16.5 8.2 47 6.1 ESE 15 22 8 12 1019.4 1018.9 0.0
01/08:30am 17.6 14.3 6.5 48 5.5 SE 13 17 7 9 1019.5 1019.0 0.0
01/08:00am 16.3 11.9 4.7 46 5.5 SE 17 22 9 12 1019.3 1018.8 0.0
01/07:30am 14.2 12.7 8.4 68 2.9 ESE 6 15 3 8 1018.9 1018.4 0.0
01/07:00am 11.3 10.9 8.2 81 1.5 CALM 0 2 0 1 1018.6 1018.1 0.0
01/06:30am 9.0 6.2 6.8 86 1.0 ESE 11 13 6 7 1018.1 1017.6 0.0
01/06:00am 9.3 7.8 6.9 85 1.1 E 4 6 2 3 1017.8 1017.3 0.0
01/05:30am 8.9 6.7 6.3 84 1.2 NE 7 11 4 6 1017.5 1017.0 0.0
01/05:00am 8.7 6.6 5.6 81 1.4 SSW 6 7 3 4 1016.8 1016.2 0.0
01/04:30am 9.8 7.8 6.2 78 1.7 SSW 6 7 3 4 1016.4 1015.9 0.0
01/04:00am 9.4 7.2 6.1 80 1.5 SW 7 9 4 5 1016.4 1015.9 0.0
01/03:30am 10.9 7.9 6.1 72 2.3 S 11 13 6 7 1016.4 1015.9 0.0
01/03:00am 10.1 7.5 6.3 77 1.8 SW 9 9 5 5 1016.5 1016.0 0.0
01/02:30am 10.3 8.4 6.5 77 1.8 NE 6 6 3 3 1016.4 1015.9 0.0
01/02:00am 11.1 8.6 6.5 73 2.2 NE 9 13 5 7 1016.8 1016.2 0.0
01/01:30am 13.7 11.1 6.1 60 3.7 S 9 11 5 6 1016.8 1016.2 0.0
01/01:00am 14.2 10.8 6.1 58 3.9 SSE 13 15 7 8 1017.2 1016.7 0.0
01/12:30am 12.2 9.5 5.6 64 3.1 SSE 9 9 5 5 1017.2 1016.7 0.0
01/12:00am 12.8 11.8 5.5 61 3.4 CALM 0 0 0 0 1017.5 1017.0 0.0
 
Date/Time
EST
Temp
°C
App
Temp
°C
Dew
Point
Rel
Hum
%
Delta-T
°C
Wind Press
QNH
hPa
Press
MSL
hPa
Rain
since 9 am
mm
Dir
 
Spd
km/h
Gust
km/h
Spd
kts
Gust
kts
31/11:30pm 14.4 10.9 5.5 55 4.3 SE 13 15 7 8 1017.3 1016.8 0.0
31/11:00pm 15.7 11.9 5.9 52 4.8 SE 15 17 8 9 1017.0 1016.4 0.0
31/10:30pm 16.3 11.7 5.6 49 5.2 SSE 19 22 10 12 1017.0 1016.4 0.0
31/10:00pm 17.2 13.0 5.8 47 5.6 ESE 17 20 9 11 1017.0 1016.4 0.0
31/09:30pm 15.8 12.0 5.7 51 4.9 SE 15 17 8 9 1017.0 1016.4 0.0
31/09:00pm 16.7 12.9 5.6 48 5.4 ESE 15 17 8 9 1017.0 1016.4 0.0

Other Formats:

Comma delimited format used in spreadsheet applications
http://www.bom.gov.au/fwo/IDQ60801/IDQ60801.94397.axf

JavaScript Object Notation format (JSON) in row-major order
http://www.bom.gov.au/fwo/IDQ60801/IDQ60801.94397.json